sensor_id;sensor_type;location;lat;lon;timestamp;temperature;humidity
70851;DHT22;58475;49.662;9.636;2023-02-21T00:01:37;7.25;76.01
70851;DHT22;58475;49.662;9.636;2023-02-21T00:04:20;7.23;76.03
70851;DHT22;58475;49.662;9.636;2023-02-21T00:07:05;7.20;76.08
70851;DHT22;58475;49.662;9.636;2023-02-21T00:09:49;7.20;76.01
70851;DHT22;58475;49.662;9.636;2023-02-21T00:12:32;7.16;75.77
70851;DHT22;58475;49.662;9.636;2023-02-21T00:15:16;7.15;75.37
70851;DHT22;58475;49.662;9.636;2023-02-21T00:18:00;7.16;75.43
70851;DHT22;58475;49.662;9.636;2023-02-21T00:20:44;7.16;75.03
70851;DHT22;58475;49.662;9.636;2023-02-21T00:23:33;7.16;74.90
70851;DHT22;58475;49.662;9.636;2023-02-21T00:26:18;7.13;74.86
70851;DHT22;58475;49.662;9.636;2023-02-21T00:29:02;7.15;74.52
70851;DHT22;58475;49.662;9.636;2023-02-21T00:31:46;7.15;74.66
70851;DHT22;58475;49.662;9.636;2023-02-21T00:34:31;7.18;74.49
70851;DHT22;58475;49.662;9.636;2023-02-21T00:37:14;7.16;74.47
70851;DHT22;58475;49.662;9.636;2023-02-21T00:39:58;7.16;74.27
70851;DHT22;58475;49.662;9.636;2023-02-21T00:42:43;7.19;74.35
70851;DHT22;58475;49.662;9.636;2023-02-21T00:45:27;7.16;73.93
70851;DHT22;58475;49.662;9.636;2023-02-21T00:48:11;7.18;73.87
70851;DHT22;58475;49.662;9.636;2023-02-21T00:50:55;7.19;73.78
70851;DHT22;58475;49.662;9.636;2023-02-21T00:53:39;7.22;73.63
70851;DHT22;58475;49.662;9.636;2023-02-21T00:56:23;7.20;73.98
70851;DHT22;58475;49.662;9.636;2023-02-21T00:59:07;7.20;73.74
70851;DHT22;58475;49.662;9.636;2023-02-21T01:01:51;7.22;73.70
70851;DHT22;58475;49.662;9.636;2023-02-21T01:04:35;7.25;73.71
70851;DHT22;58475;49.662;9.636;2023-02-21T01:07:19;7.25;73.71
70851;DHT22;58475;49.662;9.636;2023-02-21T01:10:05;7.23;73.17
70851;DHT22;58475;49.662;9.636;2023-02-21T01:12:49;7.25;73.74
70851;DHT22;58475;49.662;9.636;2023-02-21T01:15:33;7.26;73.82
70851;DHT22;58475;49.662;9.636;2023-02-21T01:18:18;7.29;73.95
70851;DHT22;58475;49.662;9.636;2023-02-21T01:21:02;7.27;74.10
70851;DHT22;58475;49.662;9.636;2023-02-21T01:23:46;7.26;74.08
70851;DHT22;58475;49.662;9.636;2023-02-21T01:26:31;7.27;74.23
70851;DHT22;58475;49.662;9.636;2023-02-21T01:29:16;7.27;74.48
70851;DHT22;58475;49.662;9.636;2023-02-21T01:32:00;7.27;74.61
70851;DHT22;58475;49.662;9.636;2023-02-21T01:34:44;7.27;74.71
70851;DHT22;58475;49.662;9.636;2023-02-21T01:37:28;7.25;74.80
70851;DHT22;58475;49.662;9.636;2023-02-21T01:40:14;7.27;74.86
70851;DHT22;58475;49.662;9.636;2023-02-21T01:42:58;7.26;74.93
70851;DHT22;58475;49.662;9.636;2023-02-21T01:45:47;7.25;74.96
70851;DHT22;58475;49.662;9.636;2023-02-21T01:48:32;7.22;74.94
70851;DHT22;58475;49.662;9.636;2023-02-21T01:51:18;7.20;75.05
70851;DHT22;58475;49.662;9.636;2023-02-21T01:54:04;7.19;75.06
70851;DHT22;58475;49.662;9.636;2023-02-21T01:56:49;7.16;75.02
70851;DHT22;58475;49.662;9.636;2023-02-21T01:59:33;7.15;75.14
70851;DHT22;58475;49.662;9.636;2023-02-21T02:05:13;7.11;75.24
70851;DHT22;58475;49.662;9.636;2023-02-21T02:07:57;7.06;75.36
70851;DHT22;58475;49.662;9.636;2023-02-21T02:10:43;7.05;75.44
70851;DHT22;58475;49.662;9.636;2023-02-21T02:14:02;7.05;75.50
70851;DHT22;58475;49.662;9.636;2023-02-21T02:24:48;6.95;75.57
70851;DHT22;58475;49.662;9.636;2023-02-21T02:27:41;6.89;75.73
70851;DHT22;58475;49.662;9.636;2023-02-21T02:35:28;6.87;75.83
70851;DHT22;58475;49.662;9.636;2023-02-21T02:38:58;6.82;75.95
70851;DHT22;58475;49.662;9.636;2023-02-21T02:41:06;6.82;76.06
70851;DHT22;58475;49.662;9.636;2023-02-21T02:43:48;6.78;75.98
70851;DHT22;58475;49.662;9.636;2023-02-21T02:46:26;6.75;76.05
70851;DHT22;58475;49.662;9.636;2023-02-21T02:48:59;6.71;76.15
70851;DHT22;58475;49.662;9.636;2023-02-21T02:51:25;6.70;76.17
70851;DHT22;58475;49.662;9.636;2023-02-21T02:53:53;6.67;76.27
70851;DHT22;58475;49.662;9.636;2023-02-21T02:56:20;6.64;76.31
70851;DHT22;58475;49.662;9.636;2023-02-21T02:58:53;6.63;76.20
70851;DHT22;58475;49.662;9.636;2023-02-21T03:15:02;6.45;76.51
70851;DHT22;58475;49.662;9.636;2023-02-21T03:17:31;6.41;76.64
70851;DHT22;58475;49.662;9.636;2023-02-21T03:19:59;6.38;76.65
70851;DHT22;58475;49.662;9.636;2023-02-21T03:22:27;6.37;76.75
70851;DHT22;58475;49.662;9.636;2023-02-21T03:24:55;6.33;76.76
70851;DHT22;58475;49.662;9.636;2023-02-21T03:27:24;6.33;76.80
70851;DHT22;58475;49.662;9.636;2023-02-21T03:29:56;6.29;76.86
70851;DHT22;58475;49.662;9.636;2023-02-21T03:32:46;6.26;76.78
70851;DHT22;58475;49.662;9.636;2023-02-21T03:35:13;6.24;76.95
70851;DHT22;58475;49.662;9.636;2023-02-21T03:37:45;6.22;76.91
70851;DHT22;58475;49.662;9.636;2023-02-21T03:40:16;6.19;77.05
70851;DHT22;58475;49.662;9.636;2023-02-21T03:42:46;6.20;77.09
70851;DHT22;58475;49.662;9.636;2023-02-21T03:45:14;6.14;77.11
70851;DHT22;58475;49.662;9.636;2023-02-21T03:47:42;6.13;77.13
70851;DHT22;58475;49.662;9.636;2023-02-21T03:50:08;6.10;77.21
70851;DHT22;58475;49.662;9.636;2023-02-21T03:52:37;6.07;77.17
70851;DHT22;58475;49.662;9.636;2023-02-21T03:55:03;6.06;77.20
70851;DHT22;58475;49.662;9.636;2023-02-21T03:57:30;6.05;77.30
70851;DHT22;58475;49.662;9.636;2023-02-21T03:59:56;6.03;77.28
70851;DHT22;58475;49.662;9.636;2023-02-21T04:02:21;5.98;77.33
70851;DHT22;58475;49.662;9.636;2023-02-21T04:04:47;5.99;77.43
70851;DHT22;58475;49.662;9.636;2023-02-21T04:07:17;5.96;77.39
70851;DHT22;58475;49.662;9.636;2023-02-21T04:09:43;5.93;77.36
70851;DHT22;58475;49.662;9.636;2023-02-21T04:12:13;5.93;77.40
70851;DHT22;58475;49.662;9.636;2023-02-21T04:14:39;5.93;77.70
70851;DHT22;58475;49.662;9.636;2023-02-21T04:17:05;5.88;77.52
70851;DHT22;58475;49.662;9.636;2023-02-21T04:19:31;5.89;77.49
70851;DHT22;58475;49.662;9.636;2023-02-21T04:21:56;5.86;77.65
70851;DHT22;58475;49.662;9.636;2023-02-21T04:24:22;5.88;77.86
70851;DHT22;58475;49.662;9.636;2023-02-21T04:26:48;5.83;77.76
70851;DHT22;58475;49.662;9.636;2023-02-21T04:29:14;5.78;77.62
70851;DHT22;58475;49.662;9.636;2023-02-21T04:31:39;5.78;77.65
70851;DHT22;58475;49.662;9.636;2023-02-21T04:34:09;5.76;77.74
70851;DHT22;58475;49.662;9.636;2023-02-21T04:36:35;5.75;77.96
70851;DHT22;58475;49.662;9.636;2023-02-21T04:39:03;5.72;77.90
70851;DHT22;58475;49.662;9.636;2023-02-21T04:41:28;5.71;77.79
70851;DHT22;58475;49.662;9.636;2023-02-21T04:43:54;5.66;77.99
70851;DHT22;58475;49.662;9.636;2023-02-21T04:46:19;5.68;77.98
70851;DHT22;58475;49.662;9.636;2023-02-21T04:48:47;5.68;78.16
70851;DHT22;58475;49.662;9.636;2023-02-21T04:51:14;5.64;78.13
70851;DHT22;58475;49.662;9.636;2023-02-21T04:53:40;5.62;77.91
70851;DHT22;58475;49.662;9.636;2023-02-21T04:56:05;5.58;77.69
70851;DHT22;58475;49.662;9.636;2023-02-21T04:58:32;5.59;77.87
70851;DHT22;58475;49.662;9.636;2023-02-21T05:00:57;5.59;77.84
70851;DHT22;58475;49.662;9.636;2023-02-21T05:03:23;5.55;78.19
70851;DHT22;58475;49.662;9.636;2023-02-21T05:05:49;5.54;78.15
70851;DHT22;58475;49.662;9.636;2023-02-21T05:08:14;5.50;77.94
70851;DHT22;58475;49.662;9.636;2023-02-21T05:10:40;5.47;78.11
70851;DHT22;58475;49.662;9.636;2023-02-21T05:13:05;5.48;78.35
70851;DHT22;58475;49.662;9.636;2023-02-21T05:15:31;5.44;78.31
70851;DHT22;58475;49.662;9.636;2023-02-21T05:17:56;5.41;78.31
70851;DHT22;58475;49.662;9.636;2023-02-21T05:20:22;5.40;78.30
70851;DHT22;58475;49.662;9.636;2023-02-21T05:22:48;5.38;78.35
70851;DHT22;58475;49.662;9.636;2023-02-21T05:25:19;5.37;78.44
70851;DHT22;58475;49.662;9.636;2023-02-21T05:27:45;5.34;78.57
70851;DHT22;58475;49.662;9.636;2023-02-21T05:30:12;5.33;78.60
70851;DHT22;58475;49.662;9.636;2023-02-21T05:32:38;5.35;78.46
70851;DHT22;58475;49.662;9.636;2023-02-21T05:35:04;5.34;78.46
70851;DHT22;58475;49.662;9.636;2023-02-21T05:37:29;5.34;78.40
70851;DHT22;58475;49.662;9.636;2023-02-21T05:39:55;5.33;78.36
70851;DHT22;58475;49.662;9.636;2023-02-21T05:42:21;5.33;78.24
70851;DHT22;58475;49.662;9.636;2023-02-21T05:44:47;5.33;78.31
70851;DHT22;58475;49.662;9.636;2023-02-21T05:47:13;5.30;78.51
70851;DHT22;58475;49.662;9.636;2023-02-21T05:49:39;5.33;78.46
70851;DHT22;58475;49.662;9.636;2023-02-21T05:52:05;5.31;78.63
70851;DHT22;58475;49.662;9.636;2023-02-21T05:54:31;5.31;78.52
70851;DHT22;58475;49.662;9.636;2023-02-21T05:56:56;5.27;78.60
70851;DHT22;58475;49.662;9.636;2023-02-21T05:59:22;5.28;78.67
70851;DHT22;58475;49.662;9.636;2023-02-21T06:01:48;5.26;78.69
70851;DHT22;58475;49.662;9.636;2023-02-21T06:04:15;5.28;78.97
70851;DHT22;58475;49.662;9.636;2023-02-21T06:06:41;5.26;78.78
70851;DHT22;58475;49.662;9.636;2023-02-21T06:09:07;5.24;78.72
70851;DHT22;58475;49.662;9.636;2023-02-21T06:11:35;5.24;78.96
70851;DHT22;58475;49.662;9.636;2023-02-21T06:14:07;5.23;79.07
70851;DHT22;58475;49.662;9.636;2023-02-21T06:16:34;5.22;78.92
70851;DHT22;58475;49.662;9.636;2023-02-21T06:19:00;5.23;78.91
70851;DHT22;58475;49.662;9.636;2023-02-21T06:21:29;5.22;78.97
70851;DHT22;58475;49.662;9.636;2023-02-21T06:23:55;5.23;79.18
70851;DHT22;58475;49.662;9.636;2023-02-21T06:26:21;5.22;79.03
70851;DHT22;58475;49.662;9.636;2023-02-21T06:28:47;5.20;78.98
70851;DHT22;58475;49.662;9.636;2023-02-21T06:31:14;5.20;78.93
70851;DHT22;58475;49.662;9.636;2023-02-21T06:33:40;5.19;79.00
70851;DHT22;58475;49.662;9.636;2023-02-21T06:36:09;5.23;79.05
70851;DHT22;58475;49.662;9.636;2023-02-21T06:38:35;5.23;79.16
70851;DHT22;58475;49.662;9.636;2023-02-21T06:41:04;5.22;79.07
70851;DHT22;58475;49.662;9.636;2023-02-21T06:43:30;5.19;79.25
70851;DHT22;58475;49.662;9.636;2023-02-21T06:45:56;5.20;79.11
70851;DHT22;58475;49.662;9.636;2023-02-21T06:48:21;5.20;79.48
70851;DHT22;58475;49.662;9.636;2023-02-21T06:50:47;5.20;79.20
70851;DHT22;58475;49.662;9.636;2023-02-21T06:53:12;5.20;79.17
70851;DHT22;58475;49.662;9.636;2023-02-21T06:55:38;5.22;79.36
70851;DHT22;58475;49.662;9.636;2023-02-21T06:58:03;5.20;79.21
70851;DHT22;58475;49.662;9.636;2023-02-21T07:00:29;5.20;79.31
70851;DHT22;58475;49.662;9.636;2023-02-21T07:02:54;5.23;79.33
70851;DHT22;58475;49.662;9.636;2023-02-21T07:05:20;5.26;79.46
70851;DHT22;58475;49.662;9.636;2023-02-21T07:07:45;5.27;79.51
70851;DHT22;58475;49.662;9.636;2023-02-21T07:10:11;5.27;79.37
70851;DHT22;58475;49.662;9.636;2023-02-21T07:12:38;5.27;79.40
70851;DHT22;58475;49.662;9.636;2023-02-21T07:15:04;5.30;79.42
70851;DHT22;58475;49.662;9.636;2023-02-21T07:17:30;5.31;79.36
70851;DHT22;58475;49.662;9.636;2023-02-21T07:19:55;5.35;79.48
70851;DHT22;58475;49.662;9.636;2023-02-21T07:22:21;5.37;79.42
70851;DHT22;58475;49.662;9.636;2023-02-21T07:24:54;5.45;79.49
70851;DHT22;58475;49.662;9.636;2023-02-21T07:27:20;5.54;79.67
70851;DHT22;58475;49.662;9.636;2023-02-21T07:29:49;5.59;79.68
70851;DHT22;58475;49.662;9.636;2023-02-21T07:32:15;5.66;79.54
70851;DHT22;58475;49.662;9.636;2023-02-21T07:34:42;5.74;79.59
70851;DHT22;58475;49.662;9.636;2023-02-21T07:37:08;5.81;79.57
70851;DHT22;58475;49.662;9.636;2023-02-21T07:39:33;5.88;79.49
70851;DHT22;58475;49.662;9.636;2023-02-21T07:41:58;5.98;79.38
70851;DHT22;58475;49.662;9.636;2023-02-21T07:44:28;6.07;79.32
70851;DHT22;58475;49.662;9.636;2023-02-21T07:46:55;6.16;79.33
70851;DHT22;58475;49.662;9.636;2023-02-21T07:49:20;6.23;79.46
70851;DHT22;58475;49.662;9.636;2023-02-21T07:51:46;6.36;79.27
70851;DHT22;58475;49.662;9.636;2023-02-21T07:54:11;6.43;79.15
70851;DHT22;58475;49.662;9.636;2023-02-21T07:56:42;6.54;79.11
70851;DHT22;58475;49.662;9.636;2023-02-21T07:59:08;6.61;78.01
70851;DHT22;58475;49.662;9.636;2023-02-21T08:01:33;6.73;77.38
70851;DHT22;58475;49.662;9.636;2023-02-21T08:03:59;6.81;76.74
70851;DHT22;58475;49.662;9.636;2023-02-21T08:06:24;6.89;76.60
70851;DHT22;58475;49.662;9.636;2023-02-21T08:08:50;7.02;76.31
70851;DHT22;58475;49.662;9.636;2023-02-21T08:11:15;7.11;76.76
70851;DHT22;58475;49.662;9.636;2023-02-21T08:13:40;7.23;76.60
70851;DHT22;58475;49.662;9.636;2023-02-21T08:16:06;7.32;76.83
70851;DHT22;58475;49.662;9.636;2023-02-21T08:18:31;7.43;76.11
70851;DHT22;58475;49.662;9.636;2023-02-21T08:20:57;7.49;76.07
70851;DHT22;58475;49.662;9.636;2023-02-21T08:23:23;7.56;75.92
70851;DHT22;58475;49.662;9.636;2023-02-21T08:25:48;7.66;75.63
70851;DHT22;58475;49.662;9.636;2023-02-21T08:28:15;7.73;75.08
70851;DHT22;58475;49.662;9.636;2023-02-21T08:30:40;7.88;75.25
70851;DHT22;58475;49.662;9.636;2023-02-21T08:33:06;7.97;75.30
70851;DHT22;58475;49.662;9.636;2023-02-21T08:35:32;8.06;75.35
70851;DHT22;58475;49.662;9.636;2023-02-21T08:37:57;8.15;74.54
70851;DHT22;58475;49.662;9.636;2023-02-21T08:40:26;8.26;73.67
70851;DHT22;58475;49.662;9.636;2023-02-21T08:42:54;8.32;73.09
70851;DHT22;58475;49.662;9.636;2023-02-21T08:45:21;8.45;73.62
70851;DHT22;58475;49.662;9.636;2023-02-21T08:47:47;8.55;73.14
70851;DHT22;58475;49.662;9.636;2023-02-21T08:50:13;8.66;72.98
70851;DHT22;58475;49.662;9.636;2023-02-21T08:52:38;8.76;73.26
70851;DHT22;58475;49.662;9.636;2023-02-21T08:55:05;8.87;72.55
70851;DHT22;58475;49.662;9.636;2023-02-21T08:57:31;8.99;72.15
70851;DHT22;58475;49.662;9.636;2023-02-21T08:59:56;9.07;72.02
70851;DHT22;58475;49.662;9.636;2023-02-21T09:02:23;9.17;71.98
70851;DHT22;58475;49.662;9.636;2023-02-21T09:04:49;9.25;71.57
70851;DHT22;58475;49.662;9.636;2023-02-21T09:07:16;9.34;71.28
70851;DHT22;58475;49.662;9.636;2023-02-21T09:09:42;9.45;71.03
70851;DHT22;58475;49.662;9.636;2023-02-21T09:12:09;9.53;71.36
70851;DHT22;58475;49.662;9.636;2023-02-21T09:14:35;9.66;71.09
70851;DHT22;58475;49.662;9.636;2023-02-21T09:17:02;9.73;70.26
70851;DHT22;58475;49.662;9.636;2023-02-21T09:19:27;9.82;69.30
70851;DHT22;58475;49.662;9.636;2023-02-21T09:21:53;9.89;69.95
70851;DHT22;58475;49.662;9.636;2023-02-21T09:24:23;9.96;69.53
70851;DHT22;58475;49.662;9.636;2023-02-21T09:26:51;10.07;69.51
70851;DHT22;58475;49.662;9.636;2023-02-21T09:29:21;10.12;69.90
70851;DHT22;58475;49.662;9.636;2023-02-21T09:31:47;10.20;69.91
70851;DHT22;58475;49.662;9.636;2023-02-21T09:34:13;10.30;69.41
70851;DHT22;58475;49.662;9.636;2023-02-21T09:36:39;10.33;68.42
70851;DHT22;58475;49.662;9.636;2023-02-21T09:39:04;10.38;68.26
70851;DHT22;58475;49.662;9.636;2023-02-21T09:41:32;10.40;68.02
70851;DHT22;58475;49.662;9.636;2023-02-21T09:43:58;10.48;68.54
70851;DHT22;58475;49.662;9.636;2023-02-21T09:46:47;10.50;67.80
70851;DHT22;58475;49.662;9.636;2023-02-21T09:49:24;10.48;67.80
70851;DHT22;58475;49.662;9.636;2023-02-21T09:51:50;10.55;67.99
70851;DHT22;58475;49.662;9.636;2023-02-21T09:54:31;10.62;68.10
70851;DHT22;58475;49.662;9.636;2023-02-21T09:56:57;10.67;67.50
70851;DHT22;58475;49.662;9.636;2023-02-21T09:59:24;10.76;68.12
70851;DHT22;58475;49.662;9.636;2023-02-21T10:04:56;10.89;67.13
70851;DHT22;58475;49.662;9.636;2023-02-21T10:07:44;10.98;67.40
70851;DHT22;58475;49.662;9.636;2023-02-21T10:12:58;11.06;67.00
70851;DHT22;58475;49.662;9.636;2023-02-21T10:15:34;11.08;67.50
70851;DHT22;58475;49.662;9.636;2023-02-21T10:18:14;11.20;67.40
70851;DHT22;58475;49.662;9.636;2023-02-21T10:20:47;11.24;67.43
70851;DHT22;58475;49.662;9.636;2023-02-21T10:23:21;11.27;66.87
70851;DHT22;58475;49.662;9.636;2023-02-21T10:25:51;11.32;66.61
70851;DHT22;58475;49.662;9.636;2023-02-21T10:28:23;11.30;66.67
70851;DHT22;58475;49.662;9.636;2023-02-21T10:30:51;11.39;66.58
70851;DHT22;58475;49.662;9.636;2023-02-21T10:33:17;11.46;66.59
70851;DHT22;58475;49.662;9.636;2023-02-21T10:35:43;11.51;66.25
70851;DHT22;58475;49.662;9.636;2023-02-21T10:38:11;11.57;66.16
70851;DHT22;58475;49.662;9.636;2023-02-21T10:40:42;11.59;65.73
70851;DHT22;58475;49.662;9.636;2023-02-21T10:43:22;11.60;66.53
70851;DHT22;58475;49.662;9.636;2023-02-21T10:46:04;11.66;66.64
70851;DHT22;58475;49.662;9.636;2023-02-21T10:48:37;11.73;66.33
70851;DHT22;58475;49.662;9.636;2023-02-21T10:51:17;11.63;66.03
70851;DHT22;58475;49.662;9.636;2023-02-21T10:53:52;11.77;66.12
70851;DHT22;58475;49.662;9.636;2023-02-21T10:56:23;11.71;65.01
70851;DHT22;58475;49.662;9.636;2023-02-21T10:58:55;11.78;65.83
70851;DHT22;58475;49.662;9.636;2023-02-21T11:01:42;11.84;65.40
70851;DHT22;58475;49.662;9.636;2023-02-21T11:07:09;11.92;64.59
70851;DHT22;58475;49.662;9.636;2023-02-21T11:17:27;11.95;64.68
70851;DHT22;58475;49.662;9.636;2023-02-21T11:19:56;11.87;64.23
70851;DHT22;58475;49.662;9.636;2023-02-21T11:22:45;11.92;64.86
70851;DHT22;58475;49.662;9.636;2023-02-21T11:25:30;12.02;64.71
70851;DHT22;58475;49.662;9.636;2023-02-21T11:30:48;11.99;63.56
70851;DHT22;58475;49.662;9.636;2023-02-21T11:33:19;11.97;63.62
70851;DHT22;58475;49.662;9.636;2023-02-21T11:35:47;12.10;64.15
70851;DHT22;58475;49.662;9.636;2023-02-21T11:41:01;12.06;64.10
70851;DHT22;58475;49.662;9.636;2023-02-21T11:43:28;12.08;64.66
70851;DHT22;58475;49.662;9.636;2023-02-21T11:48:35;12.15;63.78
70851;DHT22;58475;49.662;9.636;2023-02-21T11:51:15;12.17;63.74
70851;DHT22;58475;49.662;9.636;2023-02-21T11:53:42;12.22;65.01
70851;DHT22;58475;49.662;9.636;2023-02-21T11:56:20;12.24;64.75
70851;DHT22;58475;49.662;9.636;2023-02-21T11:58:56;12.28;64.78
70851;DHT22;58475;49.662;9.636;2023-02-21T12:01:27;12.33;65.04
70851;DHT22;58475;49.662;9.636;2023-02-21T12:04:07;12.35;65.34
70851;DHT22;58475;49.662;9.636;2023-02-21T12:11:58;12.45;65.50
70851;DHT22;58475;49.662;9.636;2023-02-21T12:24:42;12.56;64.05
70851;DHT22;58475;49.662;9.636;2023-02-21T12:32:47;12.62;63.86
70851;DHT22;58475;49.662;9.636;2023-02-21T12:38:02;12.72;64.41
70851;DHT22;58475;49.662;9.636;2023-02-21T12:46:10;12.73;63.36
70851;DHT22;58475;49.662;9.636;2023-02-21T12:48:44;12.80;63.87
70851;DHT22;58475;49.662;9.636;2023-02-21T12:51:29;12.83;63.76
70851;DHT22;58475;49.662;9.636;2023-02-21T12:54:02;12.90;64.03
70851;DHT22;58475;49.662;9.636;2023-02-21T12:56:46;12.93;63.81
70851;DHT22;58475;49.662;9.636;2023-02-21T13:02:25;13.06;63.99
70851;DHT22;58475;49.662;9.636;2023-02-21T13:04:56;13.12;63.93
70851;DHT22;58475;49.662;9.636;2023-02-21T13:07:28;13.14;64.11
70851;DHT22;58475;49.662;9.636;2023-02-21T13:10:02;13.21;64.41
70851;DHT22;58475;49.662;9.636;2023-02-21T13:12:35;13.24;64.08
70851;DHT22;58475;49.662;9.636;2023-02-21T13:15:19;13.25;64.73
70851;DHT22;58475;49.662;9.636;2023-02-21T13:18:07;13.30;63.81
70851;DHT22;58475;49.662;9.636;2023-02-21T13:20:56;13.38;64.41
70851;DHT22;58475;49.662;9.636;2023-02-21T13:23:45;13.42;64.23
70851;DHT22;58475;49.662;9.636;2023-02-21T13:27:01;13.52;64.85
70851;DHT22;58475;49.662;9.636;2023-02-21T13:29:33;13.55;64.42
70851;DHT22;58475;49.662;9.636;2023-02-21T13:32:12;13.62;63.97
70851;DHT22;58475;49.662;9.636;2023-02-21T13:34:42;13.68;64.37
70851;DHT22;58475;49.662;9.636;2023-02-21T13:37:16;13.76;64.17
70851;DHT22;58475;49.662;9.636;2023-02-21T13:39:52;13.76;63.01
70851;DHT22;58475;49.662;9.636;2023-02-21T13:42:20;13.80;63.43
70851;DHT22;58475;49.662;9.636;2023-02-21T13:53:29;14.09;63.93
70851;DHT22;58475;49.662;9.636;2023-02-21T14:00:54;14.23;63.38
70851;DHT22;58475;49.662;9.636;2023-02-21T14:10:56;14.47;62.59
70851;DHT22;58475;49.662;9.636;2023-02-21T14:13:50;14.48;62.46
70851;DHT22;58475;49.662;9.636;2023-02-21T14:16:31;14.51;62.71
70851;DHT22;58475;49.662;9.636;2023-02-21T14:19:24;14.58;63.54
70851;DHT22;58475;49.662;9.636;2023-02-21T14:21:58;14.65;62.85
70851;DHT22;58475;49.662;9.636;2023-02-21T14:24:30;14.68;61.97
70851;DHT22;58475;49.662;9.636;2023-02-21T14:39:57;15.02;62.12
70851;DHT22;58475;49.662;9.636;2023-02-21T14:42:29;15.16;61.85
70851;DHT22;58475;49.662;9.636;2023-02-21T15:06:42;16.33;61.10
70851;DHT22;58475;49.662;9.636;2023-02-21T15:09:17;16.46;60.78
70851;DHT22;58475;49.662;9.636;2023-02-21T15:11:44;16.56;60.49
70851;DHT22;58475;49.662;9.636;2023-02-21T15:14:16;16.69;60.74
70851;DHT22;58475;49.662;9.636;2023-02-21T15:17:00;16.77;61.59
70851;DHT22;58475;49.662;9.636;2023-02-21T15:19:31;16.86;60.52
70851;DHT22;58475;49.662;9.636;2023-02-21T15:27:21;17.18;59.53
70851;DHT22;58475;49.662;9.636;2023-02-21T15:30:24;17.21;59.53
70851;DHT22;58475;49.662;9.636;2023-02-21T15:35:22;17.31;58.99
70851;DHT22;58475;49.662;9.636;2023-02-21T15:37:49;17.39;59.43
70851;DHT22;58475;49.662;9.636;2023-02-21T15:40:18;17.45;59.00
70851;DHT22;58475;49.662;9.636;2023-02-21T15:42:45;17.49;58.67
70851;DHT22;58475;49.662;9.636;2023-02-21T15:45:23;17.52;59.37
70851;DHT22;58475;49.662;9.636;2023-02-21T15:47:50;17.55;58.79
70851;DHT22;58475;49.662;9.636;2023-02-21T15:50:37;17.61;59.22
70851;DHT22;58475;49.662;9.636;2023-02-21T15:53:18;17.64;59.63
70851;DHT22;58475;49.662;9.636;2023-02-21T15:55:45;17.65;59.29
70851;DHT22;58475;49.662;9.636;2023-02-21T16:01:05;17.69;59.75
70851;DHT22;58475;49.662;9.636;2023-02-21T16:03:35;17.69;59.75
70851;DHT22;58475;49.662;9.636;2023-02-21T16:08:38;17.65;59.47
70851;DHT22;58475;49.662;9.636;2023-02-21T16:11:04;17.62;59.30
70851;DHT22;58475;49.662;9.636;2023-02-21T16:13:37;17.49;59.96
70851;DHT22;58475;49.662;9.636;2023-02-21T16:16:04;17.39;59.66
70851;DHT22;58475;49.662;9.636;2023-02-21T16:18:30;17.35;59.22
70851;DHT22;58475;49.662;9.636;2023-02-21T16:21:02;17.27;58.84
70851;DHT22;58475;49.662;9.636;2023-02-21T16:26:16;17.10;59.62
70851;DHT22;58475;49.662;9.636;2023-02-21T16:28:44;17.10;60.42
70851;DHT22;58475;49.662;9.636;2023-02-21T16:31:25;17.10;61.15
70851;DHT22;58475;49.662;9.636;2023-02-21T16:33:51;16.97;61.19
70851;DHT22;58475;49.662;9.636;2023-02-21T16:36:24;16.90;61.85
70851;DHT22;58475;49.662;9.636;2023-02-21T16:38:53;16.81;62.01
70851;DHT22;58475;49.662;9.636;2023-02-21T16:41:18;16.76;62.51
70851;DHT22;58475;49.662;9.636;2023-02-21T16:43:44;16.67;62.96
70851;DHT22;58475;49.662;9.636;2023-02-21T16:46:11;16.53;63.05
70851;DHT22;58475;49.662;9.636;2023-02-21T16:48:37;16.45;63.43
70851;DHT22;58475;49.662;9.636;2023-02-21T16:51:06;16.35;63.46
70851;DHT22;58475;49.662;9.636;2023-02-21T16:53:34;16.21;63.52
70851;DHT22;58475;49.662;9.636;2023-02-21T16:56:00;16.14;63.75
70851;DHT22;58475;49.662;9.636;2023-02-21T17:00:59;15.97;64.07
70851;DHT22;58475;49.662;9.636;2023-02-21T17:03:24;15.84;64.30
70851;DHT22;58475;49.662;9.636;2023-02-21T17:05:51;15.74;64.46
70851;DHT22;58475;49.662;9.636;2023-02-21T17:08:17;15.66;64.71
70851;DHT22;58475;49.662;9.636;2023-02-21T17:10:43;15.54;64.72
70851;DHT22;58475;49.662;9.636;2023-02-21T17:13:08;15.43;64.16
70851;DHT22;58475;49.662;9.636;2023-02-21T17:15:34;15.33;64.04
70851;DHT22;58475;49.662;9.636;2023-02-21T17:18:00;15.22;64.34
70851;DHT22;58475;49.662;9.636;2023-02-21T17:20:26;15.13;64.39
70851;DHT22;58475;49.662;9.636;2023-02-21T17:22:52;14.99;64.48
70851;DHT22;58475;49.662;9.636;2023-02-21T17:25:19;14.93;64.51
70851;DHT22;58475;49.662;9.636;2023-02-21T17:27:45;14.84;65.08
70851;DHT22;58475;49.662;9.636;2023-02-21T17:30:11;14.75;65.60
70851;DHT22;58475;49.662;9.636;2023-02-21T17:32:37;14.67;65.42
70851;DHT22;58475;49.662;9.636;2023-02-21T17:35:03;14.58;65.86
70851;DHT22;58475;49.662;9.636;2023-02-21T17:37:29;14.50;65.86
70851;DHT22;58475;49.662;9.636;2023-02-21T17:39:55;14.41;65.81
70851;DHT22;58475;49.662;9.636;2023-02-21T17:42:21;14.34;65.83
70851;DHT22;58475;49.662;9.636;2023-02-21T17:44:47;14.24;65.62
70851;DHT22;58475;49.662;9.636;2023-02-21T17:47:14;14.12;65.60
70851;DHT22;58475;49.662;9.636;2023-02-21T17:49:42;13.30;65.78
70851;DHT22;58475;49.662;9.636;2023-02-21T17:52:10;13.44;66.49
70851;DHT22;58475;49.662;9.636;2023-02-21T17:54:50;13.61;65.86
70851;DHT22;58475;49.662;9.636;2023-02-21T17:57:21;13.66;65.30
70851;DHT22;58475;49.662;9.636;2023-02-21T17:59:50;13.51;65.83
70851;DHT22;58475;49.662;9.636;2023-02-21T18:02:18;13.51;66.11
70851;DHT22;58475;49.662;9.636;2023-02-21T18:04:50;13.52;65.93
70851;DHT22;58475;49.662;9.636;2023-02-21T18:07:28;13.41;65.88
70851;DHT22;58475;49.662;9.636;2023-02-21T18:10:24;13.32;66.45
70851;DHT22;58475;49.662;9.636;2023-02-21T18:12:59;13.25;66.37
70851;DHT22;58475;49.662;9.636;2023-02-21T18:15:29;12.81;66.48
70851;DHT22;58475;49.662;9.636;2023-02-21T18:17:59;12.94;66.69
70851;DHT22;58475;49.662;9.636;2023-02-21T18:20:29;12.93;66.62
70851;DHT22;58475;49.662;9.636;2023-02-21T18:22:56;12.87;66.70
70851;DHT22;58475;49.662;9.636;2023-02-21T18:25:29;12.83;67.03
70851;DHT22;58475;49.662;9.636;2023-02-21T18:27:57;12.76;66.89
70851;DHT22;58475;49.662;9.636;2023-02-21T18:30:22;12.67;67.11
70851;DHT22;58475;49.662;9.636;2023-02-21T18:32:48;12.62;67.07
70851;DHT22;58475;49.662;9.636;2023-02-21T18:35:14;12.56;66.88
70851;DHT22;58475;49.662;9.636;2023-02-21T18:37:40;12.52;67.06
70851;DHT22;58475;49.662;9.636;2023-02-21T18:40:06;12.46;67.48
70851;DHT22;58475;49.662;9.636;2023-02-21T18:42:33;12.35;67.37
70851;DHT22;58475;49.662;9.636;2023-02-21T18:44:58;12.28;67.58
70851;DHT22;58475;49.662;9.636;2023-02-21T18:47:25;12.11;67.39
70851;DHT22;58475;49.662;9.636;2023-02-21T18:49:51;11.84;68.08